首页
METAR-TAF:

METAR-TAF

机场 :

基督城, 新西兰

克赖斯特彻奇国际机场

纬度: 43-29S, 经度: 172-33E, 海拔: 38米

当前天气观测

该预报发布于48分钟前的12:30 UTC
风速5节,风向东转东北
温度 18°C
湿度 88%
气压 1008 hPa
能见度10公里或以上

METAR: NZCH 171230Z AUTO 07005KT 9999 NCD 18/16 Q1008 NOSIG

时间: 02:18 (13:18 UTC)

预报

该预报发布于1小时和35分钟前的11:43 UTC
预报有效从17日的 12点(UTC)到 18日的 12点(UTC)
风速10节,风向
能见度10公里或以上
1500米以下无云,无积雨云
成为
从 17日的 13点(UTC)到 17日的 15点(UTC)
风速5节,风向
成为
从 17日的 23点(UTC)到 18日的 01点(UTC)
风速10节,风向东转东北
几率 30% :
短暂存在
从 18日的 02点(UTC)到 18日的 06点(UTC)
能見度: 6000
少量云层高于3000英尺, 塔状积云.
阵雨
从 18日的 0900点(UTC)
风速8节,风向西转西南
能见度10公里或以上
散云层高于1500英尺

TAF: NZCH 171143Z 1712/1812 08010KT CAVOK BECMG 1713/1715 36005KT BECMG 1723/1801 06010KT PROB30 TEMPO 1802/1806 6000 SHRA FEW030TCU FM180900 24008KT 9999 SCT015

超过4000个机场的气象观测和天气预报(METAR&TAF报告)。

可查询的气象台以黄色和红色小点在地图上表示。

将鼠标移到小点上方,可查看气象台名称。

然后点击查看天气观测和预报。

如需切换地图:点击带黑十字的绿色按钮放大地图;点击带横线的绿色按钮缩小地图;或者点击绿色箭头查看邻近地区的地图。


METAR-TAF: